Time;durP1;ratioP1;P1;durP2;ratioP2;P2;SDS_P1;SDS_P2;PMS_P1;PMS_P2;Temp;Humidity;BMP_temperature;BMP_pressure;BME280_temperature;BME280_humidity;BME280_pressure;Samples;Min_cycle;Max_cycle;Signal;HPM_P1;HPM_P2
2022/08/28 00:01:00;;;;;;;8.90;8.03;;;17.10;99.90;18.20;96547.00;;;;5050460;28;20197;-88
2022/08/28 00:03:49;;;;;;;9.53;7.03;;;17.10;99.90;18.40;96538.00;;;;5051767;28;20200;-88
2022/08/28 00:06:37;;;;;;;7.13;6.03;;;17.00;99.90;18.40;96527.00;;;;5054009;28;20197;-88
2022/08/28 00:09:26;;;;;;;7.73;6.93;;;17.00;99.90;18.20;96527.00;;;;5055655;28;20199;-87
2022/08/28 00:12:17;;;;;;;8.67;7.40;;;17.00;99.90;18.00;96524.00;;;;5054669;28;20221;-88
2022/08/28 00:15:09;;;;;;;9.40;7.50;;;17.00;99.90;18.00;96525.00;;;;5056220;28;20208;-88
2022/08/28 00:17:59;;;;;;;8.47;7.73;;;16.90;99.90;18.10;96527.00;;;;5046328;28;20566;-88
2022/08/28 00:20:49;;;;;;;8.13;7.43;;;16.80;99.90;18.10;96524.00;;;;5060645;28;20188;-88
2022/08/28 00:23:39;;;;;;;9.27;7.70;;;16.90;99.90;18.20;96530.00;;;;5059701;28;20208;-88
2022/08/28 00:29:37;;;;;;;8.80;7.90;;;16.80;99.90;18.30;96532.00;;;;5053359;28;20192;-87
2022/08/28 00:32:26;;;;;;;8.40;7.60;;;16.80;99.90;18.20;96538.00;;;;5059313;28;20220;-89
2022/08/28 00:35:17;;;;;;;9.00;6.27;;;16.90;99.90;18.10;96540.00;;;;5059662;28;20196;-88
2022/08/28 00:38:06;;;;;;;7.60;6.90;;;16.80;99.90;18.20;96545.00;;;;5053938;28;20189;-89
2022/08/28 00:40:59;;;;;;;10.67;7.10;;;16.80;99.90;18.20;96547.00;;;;5054436;28;20200;-88
2022/08/28 00:43:49;;;;;;;7.03;6.33;;;16.80;99.90;18.20;96543.00;;;;5050668;28;20204;-89
2022/08/28 00:46:41;;;;;;;8.63;7.13;;;16.80;99.90;18.00;96539.00;;;;5055537;28;20205;-89
2022/08/28 00:49:34;;;;;;;13.10;7.23;;;16.80;99.90;17.90;96548.00;;;;5051618;28;20253;-89
2022/08/28 00:52:26;;;;;;;8.00;7.03;;;16.70;99.90;17.50;96542.00;;;;5054325;28;20220;-88
2022/08/28 00:55:18;;;;;;;8.43;6.90;;;16.60;99.90;17.60;96542.00;;;;5055127;28;20202;-88
2022/08/28 00:58:07;;;;;;;8.97;6.30;;;16.60;99.90;17.90;96549.00;;;;5052596;28;20196;-88
2022/08/28 01:00:57;;;;;;;8.03;7.23;;;16.50;99.90;17.80;96551.00;;;;5062711;28;20225;-89
2022/08/28 01:03:47;;;;;;;10.30;6.70;;;16.50;99.90;17.70;96551.00;;;;5053364;28;20200;-89
2022/08/28 01:06:37;;;;;;;9.97;7.07;;;16.50;99.90;17.50;96558.00;;;;5054211;28;20212;-88
2022/08/28 01:09:30;;;;;;;7.80;6.30;;;16.50;99.90;17.30;96541.00;;;;5054694;28;20204;-88
2022/08/28 01:12:23;;;;;;;9.53;7.00;;;16.40;99.90;17.50;96537.00;;;;5053148;28;20228;-88
2022/08/28 01:15:16;;;;;;;9.73;6.73;;;16.40;99.90;17.70;96538.00;;;;5052475;28;20211;-88
2022/08/28 01:18:09;;;;;;;10.67;6.33;;;16.30;99.90;17.70;96538.00;;;;5045181;28;20582;-88
2022/08/28 01:21:10;;;;;;;7.03;6.33;;;16.40;99.90;17.90;96528.00;;;;5058763;28;20623;-88
2022/08/28 01:24:07;;;;;;;7.90;6.70;;;16.40;99.90;17.90;96527.00;;;;5059427;28;20237;-87
2022/08/28 01:26:56;;;;;;;8.63;7.03;;;16.40;99.90;17.90;96524.00;;;;5043329;28;20425;-88
2022/08/28 01:29:45;;;;;;;7.97;6.80;;;16.50;99.90;17.80;96524.00;;;;5052427;28;20196;-88
2022/08/28 01:32:39;;;;;;;7.07;6.37;;;16.50;99.90;17.60;96522.00;;;;5062269;28;20683;-88
2022/08/28 01:35:32;;;;;;;9.80;6.87;;;16.50;99.90;17.90;96521.00;;;;5072961;28;20192;-87
2022/08/28 01:38:21;;;;;;;7.13;6.43;;;16.50;99.90;18.00;96514.00;;;;5074567;28;20214;-89
2022/08/28 01:41:13;;;;;;;7.27;6.57;;;16.50;99.90;17.70;96521.00;;;;5076148;28;20582;-88
2022/08/28 01:44:03;;;;;;;6.57;5.90;;;16.50;99.90;17.80;96523.00;;;;5059201;28;20232;-88
2022/08/28 01:46:56;;;;;;;6.60;5.97;;;16.50;99.90;17.90;96527.00;;;;5057790;28;20215;-88
2022/08/28 01:49:45;;;;;;;11.50;7.83;;;16.50;99.90;17.70;96530.00;;;;5055144;28;20201;-89
2022/08/28 01:52:35;;;;;;;9.93;6.17;;;16.50;99.90;17.80;96533.00;;;;5051118;28;20221;-89
2022/08/28 01:55:24;;;;;;;7.87;6.03;;;16.50;99.90;17.70;96542.00;;;;5069851;28;20206;-88
2022/08/28 01:58:14;;;;;;;8.93;5.90;;;16.40;99.90;17.40;96545.00;;;;5083866;28;20195;-89
2022/08/28 02:01:04;;;;;;;8.37;6.43;;;16.40;99.90;17.20;96543.00;;;;5077705;28;20224;-87
2022/08/28 02:03:53;;;;;;;7.50;6.70;;;16.30;99.90;17.20;96551.00;;;;5070144;28;20230;-88
2022/08/28 02:06:42;;;;;;;10.27;6.70;;;16.20;99.90;17.20;96543.00;;;;5074694;28;20252;-87
2022/08/28 02:09:31;;;;;;;7.20;6.43;;;16.20;99.90;17.10;96542.00;;;;5066877;28;20275;-86
2022/08/28 02:12:20;;;;;;;7.77;6.00;;;16.10;99.90;17.30;96546.00;;;;5076401;28;20224;-88
2022/08/28 02:15:11;;;;;;;7.13;6.43;;;16.10;99.90;17.40;96538.00;;;;5058535;28;20202;-87
2022/08/28 02:18:01;;;;;;;7.37;6.57;;;16.10;99.90;17.50;96546.00;;;;5072749;28;20192;-88
2022/08/28 02:20:50;;;;;;;8.07;6.57;;;16.20;99.90;17.60;96549.00;;;;5060891;28;20192;-87
2022/08/28 02:23:42;;;;;;;7.73;6.87;;;16.20;99.90;17.70;96540.00;;;;5064737;28;20221;-87
2022/08/28 02:26:31;;;;;;;11.70;7.43;;;16.20;99.90;17.60;96546.00;;;;5060440;28;20207;-88
2022/08/28 02:29:20;;;;;;;8.40;7.50;;;16.20;99.90;17.60;96544.00;;;;5057159;28;20674;-86
2022/08/28 02:32:11;;;;;;;11.27;6.20;;;16.20;99.90;17.60;96535.00;;;;5052825;28;20217;-87
2022/08/28 02:35:00;;;;;;;8.47;6.77;;;16.20;99.90;17.70;96535.00;;;;5061402;28;20207;-88
2022/08/28 02:37:50;;;;;;;8.97;6.63;;;16.30;99.90;17.50;96534.00;;;;5067769;28;20215;-88
2022/08/28 02:40:40;;;;;;;7.40;6.17;;;16.20;99.90;17.60;96541.00;;;;5043720;28;20207;-87
2022/08/28 02:43:28;;;;;;;6.77;6.17;;;16.20;99.90;17.50;96528.00;;;;5050226;28;20239;-87
2022/08/28 02:46:17;;;;;;;6.73;5.77;;;16.20;99.90;17.40;96533.00;;;;5066375;28;20211;-88
2022/08/28 02:49:08;;;;;;;7.00;5.17;;;16.20;99.90;17.60;96531.00;;;;5052233;28;20202;-88
2022/08/28 02:51:57;;;;;;;7.87;6.67;;;16.20;99.90;17.60;96531.00;;;;5064293;28;20216;-88
2022/08/28 02:54:46;;;;;;;6.67;5.93;;;16.20;99.90;17.50;96528.00;;;;5058612;28;20553;-88
2022/08/28 02:57:35;;;;;;;9.30;6.20;;;16.20;99.90;17.50;96537.00;;;;5061900;28;20196;-87
2022/08/28 03:00:26;;;;;;;10.77;6.77;;;16.20;99.90;17.60;96531.00;;;;5067137;28;20192;-89
2022/08/28 03:03:15;;;;;;;7.20;6.50;;;16.20;99.90;17.50;96529.00;;;;5042335;28;20216;-88
2022/08/28 03:06:07;;;;;;;8.10;6.00;;;16.20;99.90;17.20;96530.00;;;;5051548;28;20663;-88
2022/08/28 03:08:56;;;;;;;10.43;5.47;;;16.10;99.90;17.50;96526.00;;;;5052735;28;20205;-88
2022/08/28 03:11:45;;;;;;;9.30;6.67;;;16.10;99.90;17.50;96527.00;;;;5051656;28;20205;-88
2022/08/28 03:14:34;;;;;;;9.47;6.23;;;16.10;99.90;17.40;96520.00;;;;5053291;28;20677;-91
2022/08/28 03:17:23;;;;;;;7.00;6.33;;;16.10;99.90;17.30;96523.00;;;;5066530;28;20197;-89
2022/08/28 03:26:04;;;;;;;6.60;6.00;;;16.00;99.90;17.40;96523.00;;;;5103595;28;20244;-70
2022/08/28 03:28:54;;;;;;;10.57;7.37;;;16.00;99.90;17.40;96523.00;;;;5125583;27;20605;-70
2022/08/28 03:31:43;;;;;;;7.30;5.20;;;16.00;99.90;17.20;96530.00;;;;5116179;28;20209;-70
2022/08/28 03:34:32;;;;;;;8.43;6.53;;;16.00;99.90;17.10;96530.00;;;;5125220;28;20201;-69
2022/08/28 03:37:21;;;;;;;7.43;6.53;;;15.90;99.90;16.80;96525.00;;;;5126015;28;20214;-69
2022/08/28 03:40:13;;;;;;;6.77;5.70;;;15.90;99.90;17.00;96528.00;;;;5126493;28;20594;-71
2022/08/28 03:43:02;;;;;;;7.40;5.50;;;15.80;99.90;17.10;96533.00;;;;5135411;27;20851;-69
2022/08/28 03:45:56;;;;;;;9.33;6.80;;;15.80;99.90;17.20;96535.00;;;;5125445;28;20206;-68
2022/08/28 03:48:45;;;;;;;8.87;6.50;;;15.80;99.90;17.20;96541.00;;;;5124695;28;20201;-71
2022/08/28 03:51:35;;;;;;;7.83;6.67;;;15.80;99.90;17.20;96543.00;;;;5124639;28;20198;-70
2022/08/28 03:54:24;;;;;;;8.27;6.47;;;15.80;99.90;17.20;96534.00;;;;5124770;27;20226;-69
2022/08/28 03:57:18;;;;;;;6.30;5.30;;;15.80;99.90;17.20;96541.00;;;;5114829;28;20690;-71
2022/08/28 04:00:10;;;;;;;6.73;6.07;;;15.80;99.90;17.30;96544.00;;;;5116790;28;20565;-69
2022/08/28 04:02:59;;;;;;;7.67;6.77;;;15.80;99.90;17.30;96536.00;;;;5123490;28;20225;-68
2022/08/28 04:05:48;;;;;;;10.60;7.97;;;15.80;99.90;17.20;96547.00;;;;5125368;28;20230;-70
2022/08/28 04:08:37;;;;;;;11.67;8.27;;;15.80;99.90;17.20;96549.00;;;;5125201;28;20901;-70
2022/08/28 04:11:26;;;;;;;8.83;7.57;;;15.80;99.90;17.00;96548.00;;;;5124248;27;20594;-70
2022/08/28 04:14:16;;;;;;;6.23;5.60;;;15.80;99.90;16.90;96549.00;;;;5125199;28;20206;-70
2022/08/28 04:17:06;;;;;;;7.50;6.00;;;15.80;99.90;16.80;96554.00;;;;5126099;28;20688;-70
2022/08/28 04:19:55;;;;;;;6.83;6.13;;;15.70;99.90;16.80;96551.00;;;;5134895;27;20201;-70
2022/08/28 04:22:43;;;;;;;8.90;7.30;;;15.60;99.90;16.70;96554.00;;;;5128248;27;20793;-70
2022/08/28 04:25:32;;;;;;;10.00;6.83;;;15.60;99.90;16.90;96554.00;;;;5124891;27;20197;-69
2022/08/28 04:28:21;;;;;;;8.10;7.33;;;15.60;99.90;16.90;96555.00;;;;5123127;28;20194;-70
2022/08/28 04:31:12;;;;;;;7.90;6.60;;;15.60;99.90;16.70;96564.00;;;;5122201;27;20696;-69
2022/08/28 04:34:03;;;;;;;8.53;7.43;;;15.50;99.90;16.70;96570.00;;;;5111543;28;20275;-70
2022/08/28 04:36:52;;;;;;;8.17;7.37;;;15.50;99.90;16.60;96562.00;;;;5112057;28;20214;-68
2022/08/28 04:39:41;;;;;;;11.47;8.30;;;15.50;99.90;16.70;96571.00;;;;5112916;28;20700;-71
2022/08/28 04:42:30;;;;;;;7.30;6.60;;;15.50;99.90;16.60;96575.00;;;;5115164;27;20222;-71
2022/08/28 04:45:19;;;;;;;8.40;7.50;;;15.50;99.90;16.80;96570.00;;;;5103769;28;20198;-70
2022/08/28 04:48:10;;;;;;;11.23;7.40;;;15.50;99.90;16.90;96571.00;;;;5111847;28;20212;-70
2022/08/28 04:50:59;;;;;;;9.20;7.67;;;15.50;99.90;16.90;96577.00;;;;5110767;28;20195;-69
2022/08/28 04:53:48;;;;;;;7.10;6.07;;;15.50;99.90;17.00;96575.00;;;;5108784;27;20241;-70
2022/08/28 04:56:39;;;;;;;7.03;6.17;;;15.60;99.90;16.60;96585.00;;;;5130955;27;20214;-70
2022/08/28 04:59:29;;;;;;;8.87;7.00;;;15.50;99.90;16.90;96584.00;;;;5112352;27;20217;-70
2022/08/28 05:02:18;;;;;;;8.87;6.43;;;15.50;99.90;16.80;96582.00;;;;5107690;28;20222;-71
2022/08/28 05:05:10;;;;;;;8.97;6.63;;;15.50;99.90;16.90;96580.00;;;;5110573;28;20203;-70
2022/08/28 05:07:59;;;;;;;8.03;7.03;;;15.50;99.90;16.60;96589.00;;;;5109694;28;20213;-69
2022/08/28 05:10:49;;;;;;;12.27;7.37;;;15.50;99.90;16.80;96595.00;;;;5110704;28;20213;-70
2022/08/28 05:13:38;;;;;;;10.07;7.33;;;15.50;99.90;17.10;96588.00;;;;5103841;28;20206;-71
2022/08/28 05:16:27;;;;;;;9.63;7.40;;;15.60;99.90;17.30;96589.00;;;;5091648;28;20214;-70
2022/08/28 05:19:18;;;;;;;12.33;7.63;;;15.70;99.90;17.20;96585.00;;;;5095198;27;20569;-71
2022/08/28 05:22:09;;;;;;;7.60;6.50;;;15.70;99.90;17.10;96591.00;;;;5106311;28;20221;-70
2022/08/28 05:24:59;;;;;;;9.27;6.97;;;15.80;99.90;17.10;96585.00;;;;5091005;28;20581;-70
2022/08/28 05:27:48;;;;;;;12.10;7.03;;;15.80;99.90;17.00;96599.00;;;;5097209;28;20217;-70
2022/08/28 05:30:39;;;;;;;5.60;5.00;;;15.70;99.90;16.90;96597.00;;;;5105229;28;20206;-71
2022/08/28 05:33:28;;;;;;;11.13;7.20;;;15.70;99.90;16.90;96600.00;;;;5100116;28;20186;-68
2022/08/28 05:36:18;;;;;;;8.23;6.47;;;15.70;99.90;17.30;96598.00;;;;5104535;28;20241;-70
2022/08/28 05:39:11;;;;;;;8.07;6.33;;;15.80;99.90;17.30;96599.00;;;;5109648;28;20689;-71
2022/08/28 05:42:00;;;;;;;7.27;6.53;;;15.90;99.90;17.30;96598.00;;;;5114339;27;20222;-70
2022/08/28 05:44:48;;;;;;;8.50;6.80;;;15.90;99.90;17.30;96603.00;;;;5108522;28;20195;-71
2022/08/28 05:47:37;;;;;;;8.60;6.40;;;16.00;99.90;17.40;96599.00;;;;5110120;28;20226;-71
2022/08/28 05:50:26;;;;;;;9.37;6.83;;;16.20;99.90;17.60;96613.00;;;;5110809;28;20563;-70
2022/08/28 05:53:16;;;;;;;9.37;7.20;;;16.20;99.90;17.80;96619.00;;;;5107164;28;20198;-70
2022/08/28 05:56:07;;;;;;;9.27;7.20;;;16.30;99.90;17.90;96613.00;;;;5108375;28;21471;-70
2022/08/28 05:58:56;;;;;;;9.13;7.57;;;16.50;99.90;18.10;96626.00;;;;5110556;28;20202;-71
2022/08/28 06:01:48;;;;;;;10.13;8.50;;;16.60;99.90;18.20;96625.00;;;;5109086;28;20199;-70
2022/08/28 06:04:39;;;;;;;10.23;9.23;;;16.70;99.90;18.10;96624.00;;;;5109071;28;20199;-70
2022/08/28 06:07:28;;;;;;;9.03;8.13;;;16.80;99.90;18.10;96623.00;;;;5109235;28;20316;-71
2022/08/28 06:10:17;;;;;;;7.43;6.63;;;16.80;99.90;18.10;96624.00;;;;5110208;28;20195;-70
2022/08/28 06:13:07;;;;;;;9.97;7.03;;;16.90;99.90;18.20;96630.00;;;;5107393;28;20195;-70
2022/08/28 06:15:56;;;;;;;8.97;7.43;;;16.90;99.90;18.20;96631.00;;;;5104768;28;20595;-71
2022/08/28 06:18:46;;;;;;;10.03;8.93;;;16.90;99.90;18.30;96632.00;;;;5108584;27;20198;-69
2022/08/28 06:21:35;;;;;;;14.50;10.77;;;17.00;99.90;18.50;96627.00;;;;5103957;28;20210;-69
2022/08/28 06:24:25;;;;;;;13.13;10.03;;;17.10;99.90;18.70;96635.00;;;;5089008;28;20575;-71
2022/08/28 06:27:13;;;;;;;11.63;8.87;;;17.20;99.90;18.50;96636.00;;;;5091687;28;20226;-72
2022/08/28 06:30:05;;;;;;;10.70;8.90;;;17.30;99.90;18.60;96630.00;;;;5109021;28;20190;-73
2022/08/28 06:32:54;;;;;;;8.90;8.00;;;17.40;99.90;18.80;96627.00;;;;5106550;28;20214;-70
2022/08/28 06:35:45;;;;;;;10.50;9.10;;;17.40;99.90;19.10;96630.00;;;;5104111;28;20230;-71
2022/08/28 06:38:34;;;;;;;14.73;9.47;;;17.60;99.90;19.20;96623.00;;;;5105621;28;20203;-69
2022/08/28 06:41:22;;;;;;;11.57;9.57;;;17.70;99.90;19.50;96631.00;;;;5108430;27;20209;-71
2022/08/28 06:44:13;;;;;;;11.90;9.10;;;17.90;99.90;19.40;96637.00;;;;5108776;28;20222;-69
2022/08/28 06:47:04;;;;;;;12.33;10.00;;;18.00;99.90;19.50;96643.00;;;;5107931;28;20207;-73
2022/08/28 06:49:53;;;;;;;13.40;10.07;;;18.00;99.90;19.70;96650.00;;;;5107568;28;20207;-70
2022/08/28 06:52:42;;;;;;;11.47;8.60;;;18.10;99.90;19.80;96643.00;;;;5107640;28;20230;-68
2022/08/28 06:55:31;;;;;;;9.80;8.70;;;18.30;99.90;19.80;96649.00;;;;5124611;27;20221;-70
2022/08/28 06:58:19;;;;;;;12.03;9.03;;;18.30;99.90;19.70;96646.00;;;;5116110;27;20657;-70
2022/08/28 07:01:11;;;;;;;13.73;9.80;;;18.40;99.90;19.70;96646.00;;;;5107716;28;20198;-68
2022/08/28 07:04:05;;;;;;;12.20;9.73;;;18.40;99.90;19.90;96649.00;;;;5106372;28;20226;-71
2022/08/28 07:06:54;;;;;;;11.40;9.10;;;18.50;99.90;19.90;96655.00;;;;5106346;28;20230;-70
2022/08/28 07:09:43;;;;;;;10.93;8.83;;;18.50;99.90;20.20;96651.00;;;;5108663;28;20577;-69
2022/08/28 07:12:32;;;;;;;11.13;10.03;;;18.60;99.90;20.20;96653.00;;;;5107772;28;20202;-68
2022/08/28 07:15:21;;;;;;;11.10;9.03;;;18.70;99.90;20.30;96655.00;;;;5105702;27;20574;-70
2022/08/28 07:18:10;;;;;;;9.40;8.50;;;18.80;99.90;20.30;96656.00;;;;5107282;28;20194;-72
2022/08/28 07:21:01;;;;;;;10.60;9.50;;;18.90;99.90;20.50;96660.00;;;;5105683;28;20659;-71
2022/08/28 07:23:50;;;;;;;9.97;9.07;;;19.00;99.90;20.70;96652.00;;;;5095349;28;20233;-72
2022/08/28 07:26:42;;;;;;;12.50;10.37;;;19.10;99.90;20.80;96661.00;;;;5108094;28;20219;-72
2022/08/28 07:29:31;;;;;;;9.77;8.60;;;19.20;99.90;20.90;96655.00;;;;5103330;28;20191;-71
2022/08/28 07:32:21;;;;;;;11.67;9.53;;;19.30;99.90;21.20;96665.00;;;;5104559;28;20209;-73
2022/08/28 07:35:10;;;;;;;14.40;9.07;;;19.40;99.90;21.40;96666.00;;;;5107273;28;20220;-72
2022/08/28 07:38:01;;;;;;;9.27;7.97;;;19.60;99.90;21.10;96661.00;;;;5106067;28;20199;-72
2022/08/28 07:40:50;;;;;;;10.17;8.90;;;19.70;99.90;21.20;96661.00;;;;5107933;28;20207;-74
2022/08/28 07:46:46;;;;;;;9.60;7.73;;;19.80;99.90;21.70;96667.00;;;;5080436;22;20612;-86
2022/08/28 07:49:36;;;;;;;8.97;7.53;;;19.90;99.90;21.60;96658.00;;;;5053957;28;20276;-86
2022/08/28 07:52:24;;;;;;;8.90;7.67;;;20.00;99.90;21.80;96666.00;;;;5066918;28;20228;-85
2022/08/28 07:55:15;;;;;;;9.00;7.50;;;20.10;99.90;22.20;96672.00;;;;5076557;28;20211;-84
2022/08/28 07:58:04;;;;;;;8.30;6.93;;;20.20;99.90;22.20;96663.00;;;;5068784;28;20204;-85
2022/08/28 08:00:54;;;;;;;9.07;8.17;;;20.30;99.90;22.20;96672.00;;;;5076987;22;20246;-88
2022/08/28 08:03:44;;;;;;;8.40;7.53;;;20.40;99.90;22.50;96675.00;;;;5081037;28;20227;-88
2022/08/28 08:06:34;;;;;;;8.27;6.73;;;20.50;99.90;22.60;96669.00;;;;5078530;28;20195;-88
2022/08/28 08:09:23;;;;;;;7.60;6.90;;;20.60;99.90;22.60;96677.00;;;;5092132;28;20583;-88
2022/08/28 08:12:15;;;;;;;7.20;6.37;;;20.70;99.90;22.80;96674.00;;;;5077409;28;20195;-89
2022/08/28 08:15:05;;;;;;;7.70;7.00;;;20.80;99.90;22.90;96666.00;;;;5094146;28;20199;-88
2022/08/28 08:17:54;;;;;;;8.20;6.53;;;21.00;99.90;22.60;96662.00;;;;5093183;28;20221;-89
2022/08/28 08:20:43;;;;;;;12.53;7.63;;;21.00;99.90;22.80;96669.00;;;;5088034;28;20205;-89
2022/08/28 08:23:33;;;;;;;7.60;6.83;;;21.20;99.90;22.70;96672.00;;;;5079905;28;20756;-89
2022/08/28 08:26:26;;;;;;;6.90;6.20;;;21.20;99.90;22.50;96671.00;;;;5088220;28;20335;-90
2022/08/28 08:29:17;;;;;;;7.73;6.90;;;21.20;99.90;22.80;96663.00;;;;5088906;28;20196;-89
2022/08/28 08:32:10;;;;;;;7.50;6.73;;;21.20;99.90;23.10;96671.00;;;;5086498;28;20231;-89
2022/08/28 08:34:59;;;;;;;6.87;6.13;;;21.30;99.90;23.40;96670.00;;;;5090962;28;20213;-89
2022/08/28 08:37:48;;;;;;;7.43;6.80;;;21.40;99.90;23.80;96672.00;;;;5092296;28;20669;-89
2022/08/28 08:40:37;;;;;;;8.70;6.53;;;21.60;99.90;24.00;96677.00;;;;5086205;28;20571;-88
2022/08/28 08:43:29;;;;;;;7.23;6.13;;;21.90;99.90;24.10;96673.00;;;;5093644;28;20223;-89
2022/08/28 08:46:22;;;;;;;7.53;6.83;;;22.10;99.90;24.10;96674.00;;;;5092944;28;20195;-89
2022/08/28 08:49:17;;;;;;;6.67;5.97;;;22.20;99.90;23.90;96671.00;;;;5092633;28;20801;-89
2022/08/28 08:52:30;;;;;;;9.93;5.83;;;22.30;99.90;24.20;96675.00;;;;5090999;28;20195;-89
2022/08/28 08:55:27;;;;;;;6.17;5.57;;;22.40;99.90;24.20;96674.00;;;;5094297;28;20207;-89
2022/08/28 08:58:26;;;;;;;7.23;6.17;;;22.50;99.90;24.00;96674.00;;;;5091835;28;20240;-88
2022/08/28 09:01:23;;;;;;;7.17;6.47;;;22.40;99.90;24.00;96672.00;;;;5089947;28;20214;-89
2022/08/28 09:04:25;;;;;;;7.73;6.37;;;22.50;99.90;24.30;96674.00;;;;5087644;28;20223;-89
2022/08/28 09:07:20;;;;;;;5.93;5.33;;;22.50;99.90;24.80;96666.00;;;;5096381;28;20587;-89
2022/08/28 09:10:13;;;;;;;7.27;6.47;;;22.70;99.90;25.10;96677.00;;;;5099622;28;20188;-89
2022/08/28 09:13:13;;;;;;;10.83;6.53;;;22.90;99.90;25.40;96666.00;;;;5094744;28;20219;-89
2022/08/28 09:16:11;;;;;;;6.00;5.40;;;23.20;99.90;25.50;96662.00;;;;5112793;28;20190;-89
2022/08/28 09:19:03;;;;;;;6.30;5.77;;;23.50;99.90;25.50;96672.00;;;;5091243;28;20666;-89
2022/08/28 09:21:52;;;;;;;6.53;5.93;;;23.70;99.90;26.00;96668.00;;;;5097909;28;20593;-89
2022/08/28 09:24:42;;;;;;;10.00;6.50;;;23.90;99.90;26.30;96671.00;;;;5102380;28;20212;-89
2022/08/28 09:27:33;;;;;;;6.10;5.50;;;24.10;99.90;26.30;96664.00;;;;5091824;28;20200;-89
2022/08/28 09:30:32;;;;;;;6.63;5.93;;;24.30;99.90;26.70;96662.00;;;;5084529;28;20196;-90
2022/08/28 09:33:37;;;;;;;9.13;5.73;;;24.50;99.90;26.70;96666.00;;;;5083117;28;20221;-90
2022/08/28 09:36:33;;;;;;;6.60;5.90;;;24.80;99.90;26.80;96655.00;;;;5091102;28;20581;-90
2022/08/28 09:39:25;;;;;;;7.73;5.50;;;24.80;99.90;27.00;96652.00;;;;5090404;28;20575;-90
2022/08/28 09:45:30;;;;;;;6.20;5.50;;;25.20;99.90;27.90;96657.00;;;;5071695;28;20220;-89
2022/08/28 09:48:22;;;;;;;7.03;5.43;;;25.50;99.90;28.10;96665.00;;;;5083524;28;20202;-89
2022/08/28 09:51:14;;;;;;;10.10;5.70;;;25.70;99.90;28.00;96663.00;;;;5090348;28;20194;-89
2022/08/28 09:54:12;;;;;;;5.93;4.97;;;25.90;99.90;28.30;96667.00;;;;5090287;28;20226;-90
2022/08/28 09:57:02;;;;;;;6.17;5.13;;;26.00;99.90;28.20;96660.00;;;;5090739;28;20199;-91
2022/08/28 09:59:52;;;;;;;6.40;5.80;;;26.20;99.90;28.40;96669.00;;;;5080026;28;20197;-90
2022/08/28 10:02:47;;;;;;;8.87;5.70;;;26.30;99.90;28.10;96659.00;;;;5084528;28;20209;-89
2022/08/28 10:05:47;;;;;;;6.10;5.57;;;26.30;99.90;28.10;96662.00;;;;5091790;28;20213;-90
2022/08/28 10:08:54;;;;;;;6.13;4.87;;;26.40;99.90;28.40;96660.00;;;;5090519;28;20194;-90
2022/08/28 10:11:54;;;;;;;7.00;5.20;;;26.50;99.90;27.70;96651.00;;;;5090986;28;20197;-89
2022/08/28 10:14:58;;;;;;;7.37;4.60;;;26.40;99.90;28.20;96657.00;;;;5078653;28;20578;-90
2022/08/28 10:18:01;;;;;;;6.23;4.03;;;26.50;99.90;28.90;96661.00;;;;5090358;28;20686;-92
2022/08/28 10:21:01;;;;;;;4.57;3.87;;;26.60;99.90;28.70;96651.00;;;;5086985;28;20209;-91
2022/08/28 10:24:15;;;;;;;5.20;4.70;;;26.80;99.90;29.10;96641.00;;;;5085845;28;20222;-90
2022/08/28 10:27:18;;;;;;;5.77;4.60;;;26.90;99.90;29.60;96654.00;;;;5071500;28;20208;-90
2022/08/28 10:30:13;;;;;;;6.37;5.03;;;27.10;99.90;28.90;96637.00;;;;5091229;28;20569;-89
2022/08/28 10:33:30;;;;;;;5.50;4.90;;;27.20;99.90;29.70;96642.00;;;;5089546;28;20234;-90
2022/08/28 10:36:23;;;;;;;5.70;4.83;;;27.50;99.90;29.40;96640.00;;;;5091518;28;20211;-90
2022/08/28 10:39:39;;;;;;;5.37;4.87;;;27.60;99.90;29.50;96634.00;;;;5091336;28;20205;-92
2022/08/28 10:42:35;;;;;;;6.47;4.43;;;27.60;99.90;29.70;96629.00;;;;5084124;28;20214;-90
2022/08/28 10:45:25;;;;;;;4.97;4.33;;;27.70;99.90;29.00;96622.00;;;;5085710;28;20232;-91
2022/08/28 10:48:22;;;;;;;8.83;4.37;;;27.70;99.90;29.70;96630.00;;;;5087640;28;20209;-92
2022/08/28 10:51:20;;;;;;;4.67;4.13;;;27.80;99.90;29.80;96633.00;;;;5090815;28;20197;-91
2022/08/28 10:54:27;;;;;;;4.90;4.40;;;27.90;99.90;30.00;96633.00;;;;5090776;28;21083;-91
2022/08/28 10:57:31;;;;;;;5.90;4.80;;;28.00;99.90;30.30;96626.00;;;;5089663;28;20202;-91
2022/08/28 11:00:25;;;;;;;4.87;4.37;;;28.20;99.90;30.80;96631.00;;;;5086798;28;20693;-90
2022/08/28 11:03:21;;;;;;;4.17;3.57;;;28.40;99.90;30.50;96625.00;;;;5091905;28;20212;-90
2022/08/28 11:06:34;;;;;;;4.10;3.70;;;28.60;99.90;31.20;96622.00;;;;5082685;28;20584;-91
2022/08/28 11:09:32;;;;;;;4.23;3.70;;;28.90;99.90;31.50;96620.00;;;;5088481;28;20200;-93
2022/08/28 11:12:42;;;;;;;4.23;3.20;;;29.20;99.90;32.00;96617.00;;;;5082311;28;20201;-92
2022/08/28 11:15:53;;;;;;;4.90;3.90;;;29.40;99.90;31.30;96608.00;;;;5084962;28;20210;-91
2022/08/28 11:19:34;;;;;;;3.88;3.35;;;29.80;99.00;31.30;96614.00;;;;5087252;28;20235;-90
2022/08/28 11:22:29;;;;;;;3.85;3.47;;;29.90;97.20;32.50;96633.00;;;;5067284;28;20575;-91
2022/08/28 11:25:32;;;;;;;3.80;3.50;;;30.00;99.00;32.80;96622.00;;;;5090194;28;20682;-90
2022/08/28 11:28:43;;;;;;;4.00;3.65;;;30.20;98.10;33.20;96610.00;;;;5083615;28;20625;-92
2022/08/28 11:31:37;;;;;;;3.70;3.40;;;30.60;96.80;33.50;96618.00;;;;5085385;28;20198;-90
2022/08/28 11:34:57;;;;;;;4.95;3.35;;;30.80;96.80;33.90;96631.00;;;;5084231;28;20214;-91
2022/08/28 11:37:49;;;;;;;4.47;3.90;;;31.10;97.30;33.00;96653.00;;;;5087758;28;20218;-94
2022/08/28 11:40:56;;;;;;;4.40;4.00;;;31.20;95.10;32.70;96618.00;;;;5089756;28;20193;-91
2022/08/28 11:43:49;;;;;;;4.35;3.95;;;31.20;94.10;33.70;96609.00;;;;5072733;28;20603;-90
2022/08/28 11:46:48;;;;;;;4.07;3.67;;;31.30;95.00;34.10;96601.00;;;;5082614;28;20800;-91
2022/08/28 11:49:44;;;;;;;4.05;3.63;;;31.50;94.10;33.80;96601.00;;;;5088958;28;20195;-90
2022/08/28 11:53:07;;;;;;;3.25;2.95;;;31.60;92.80;32.30;96596.00;;;;5090490;28;20607;-90
2022/08/28 11:56:41;;;;;;;5.35;4.40;;;31.70;91.00;33.70;96609.00;;;;5089799;28;20225;-90
2022/08/28 12:00:05;;;;;;;4.03;3.72;;;31.40;93.20;33.40;96593.00;;;;5090050;28;20193;-90
2022/08/28 12:03:12;;;;;;;5.45;4.35;;;31.50;92.50;32.50;96618.00;;;;5090374;28;20699;-91
2022/08/28 12:06:01;;;;;;;4.03;3.70;;;31.60;90.40;31.00;96616.00;;;;5091550;28;20237;-90
2022/08/28 12:09:11;;;;;;;5.88;4.03;;;31.00;88.20;32.00;96626.00;;;;5089529;28;20219;-92
2022/08/28 12:12:05;;;;;;;5.75;4.32;;;30.70;90.90;32.20;96643.00;;;;5091898;28;20611;-91
2022/08/28 12:15:00;;;;;;;6.30;4.15;;;30.50;91.20;31.90;96650.00;;;;5084725;28;20216;-90
2022/08/28 12:17:53;;;;;;;5.78;4.03;;;30.30;91.80;31.90;96647.00;;;;5088617;28;20195;-90
2022/08/28 12:23:41;;;;;;;3.90;3.60;;;30.10;93.10;31.90;96654.00;;;;5085773;22;20267;-74
2022/08/28 12:26:34;;;;;;;4.93;3.38;;;30.10;92.80;31.70;96649.00;;;;5050860;28;20238;-74
2022/08/28 12:29:31;;;;;;;5.40;3.85;;;30.00;93.00;31.20;96652.00;;;;5032658;28;20204;-73
2022/08/28 12:32:33;;;;;;;4.93;4.13;;;29.80;92.60;30.90;96652.00;;;;5048292;28;20211;-73
2022/08/28 12:35:26;;;;;;;10.60;4.32;;;29.60;92.80;30.00;96652.00;;;;5046614;28;20700;-74
2022/08/28 12:38:21;;;;;;;5.18;4.00;;;29.20;92.70;28.30;96658.00;;;;5042202;28;20569;-72
2022/08/28 12:41:16;;;;;;;8.57;4.82;;;28.60;92.00;27.10;96647.00;;;;5040721;28;20229;-69
2022/08/28 12:44:07;;;;;;;7.90;4.50;;;27.60;92.80;26.70;96645.00;;;;5044014;28;20575;-68
2022/08/28 12:46:57;;;;;;;13.20;5.03;;;26.70;94.30;26.50;96652.00;;;;5040047;28;20209;-73
2022/08/28 12:49:47;;;;;;;4.67;4.03;;;26.00;95.50;25.80;96639.00;;;;5038973;28;20210;-72
2022/08/28 12:52:36;;;;;;;4.93;3.00;;;25.50;96.10;25.40;96649.00;;;;5040104;28;20199;-74
2022/08/28 12:55:26;;;;;;;4.10;3.17;;;25.10;96.60;25.10;96646.00;;;;5042251;28;20224;-70
2022/08/28 12:58:31;;;;;;;3.60;3.30;;;24.60;96.70;24.40;96642.00;;;;5032090;28;20193;-70
2022/08/28 13:01:28;;;;;;;5.57;3.40;;;24.20;97.90;23.90;96646.00;;;;5047516;28;20196;-70
2022/08/28 13:04:32;;;;;;;5.53;4.37;;;23.60;99.90;23.70;96659.00;;;;5039180;28;20201;-68